Rochford, United Kingdom
Current Conditions -  °F | °C
As of 8:50 AM on Wednesday 28 Jan 2015 (Local Time) from EGMC Reporting Station
Broken Clouds Broken Clouds  
Wind Chill: 40°   Ceiling: 1100
Heat Index: 48°   Visibility: 6mi
Dew Point: 45°   Wind: 24mph
Humidity: 87%   Direction: 210°SSW
Pressure: 29.65"   Gusts: NA
Location:  51.58°N, 0.71°E
Report Text: EGMC 280850Z 21021KT 9999 FEW009 BKN011 09/07 Q1004
Loading
Personal Weather Stations






























Interactive Weather Map New forecast layout! Learn more

10-Day Weather Forecast

Advertisements
Track Severe Weather on mobile